Back to top

Laramie, WY weather

Laramie Regional Airport, Laramie, WY: 11/13/2019 17:53
Visibility10 statute milessun with scattered clouds
View 7-Day Forecast
Area Summary
Sky/CloudsScattered at 7000ft
Weather [last 24 hours]None
Pressure30.08 in.Hg (1019 hPa)
Dew Point19.9 °F (-6.7 °C)
Relative Humidity 56 %
Temperature34 °F (1.1 °C)red thermometer
Wind Chill28.8 °F (-1.78 °C)
Reading TimeMinimum to Maximum Temperature
6-hr ending 11/13@16:5337.9 °F to 48 °F (3.3 °C to 8.9 °C)
6-hr ending 11/13@10:5335.1 °F to 43 °F (1.7 °C to 6.1 °C)
6-hr ending 11/13@04:5337.9 °F to 46 °F (3.3 °C to 7.8 °C)
6-hr ending 11/12@22:5337 °F to 44.1 °F (2.8 °C to 6.7 °C)
24-hr ending 11/12@23:535 °F to 51.1 °F (-15 °C to 10.6 °C)
Wind5.75 MPH (5 KT)
Wind FromNorth (360 Degrees)
Rolling 24-hr Peak Wind51.8 MPH (45 KT) on 11/13@01:27
Rolling 24-hr Peak Wind FromWest (260 Degrees)
Twilight Begins06:18Sunshine Yesterday
Sunrise06:48N/A
Sunset16:46
Twilight Ends17:15
METARKLAR 140053Z AUTO 36005KT 10SM SCT070 01/M07 A3008 RMK AO2 SLP167 T00111067
Tags: